sensor_id;sensor_type;location;lat;lon;timestamp;pressure;altitude;pressure_sealevel;temperature;humidity
23164;BME280;31429;42.674;23.350;2022-08-05T09:00:52;94855.19;;;28.62;59.87
23164;BME280;31429;42.674;23.350;2022-08-05T09:01:53;94725.97;;;27.92;61.92
23164;BME280;31429;42.674;23.350;2022-08-05T09:02:55;94851.44;;;28.65;67.67
23164;BME280;31429;42.674;23.350;2022-08-05T09:03:57;94855.66;;;28.49;61.27
23164;BME280;31429;42.674;23.350;2022-08-05T09:04:59;94851.63;;;28.63;55.16
23164;BME280;31429;42.674;23.350;2022-08-05T09:06:00;94768.03;;;28.25;54.47
23164;BME280;31429;42.674;23.350;2022-08-05T09:07:01;94723.69;;;28.14;60.11
23164;BME280;31429;42.674;23.350;2022-08-05T09:08:02;94735.34;;;28.27;45.31
23164;BME280;31429;42.674;23.350;2022-08-05T09:09:03;94710.34;;;28.39;60.13
23164;BME280;31429;42.674;23.350;2022-08-05T09:10:05;94855.63;;;29.38;56.33
23164;BME280;31429;42.674;23.350;2022-08-05T09:11:06;94849.19;;;29.41;44.55
23164;BME280;31429;42.674;23.350;2022-08-05T09:12:08;94716.31;;;28.09;61.65
23164;BME280;31429;42.674;23.350;2022-08-05T09:13:09;94809.47;;;28.47;56.78
23164;BME280;31429;42.674;23.350;2022-08-05T09:14:10;94814.56;;;28.57;49.45
23164;BME280;31429;42.674;23.350;2022-08-05T09:15:12;94842.56;;;28.74;50.80
23164;BME280;31429;42.674;23.350;2022-08-05T09:16:14;94728.75;;;28.07;53.59
23164;BME280;31429;42.674;23.350;2022-08-05T09:17:15;94791.25;;;28.78;53.50
23164;BME280;31429;42.674;23.350;2022-08-05T09:18:16;94830.28;;;29.37;60.00
23164;BME280;31429;42.674;23.350;2022-08-05T09:19:17;94835.16;;;29.56;59.98
23164;BME280;31429;42.674;23.350;2022-08-05T09:20:18;94697.44;;;28.85;57.13
23164;BME280;31429;42.674;23.350;2022-08-05T09:26:18;94662.69;;;28.18;43.25
23164;BME280;31429;42.674;23.350;2022-08-05T09:27:31;94696.88;;;28.10;44.02
23164;BME280;31429;42.674;23.350;2022-08-05T09:28:33;94691.97;;;28.07;42.84
23164;BME280;31429;42.674;23.350;2022-08-05T09:29:38;94715.78;;;28.22;42.35
23164;BME280;31429;42.674;23.350;2022-08-05T09:30:43;94817.69;;;28.84;42.58
23164;BME280;31429;42.674;23.350;2022-08-05T09:32:00;94764.56;;;28.81;45.27
23164;BME280;31429;42.674;23.350;2022-08-05T09:33:01;94661.00;;;28.49;42.88
23164;BME280;31429;42.674;23.350;2022-08-05T09:34:05;94786.41;;;29.52;51.09
23164;BME280;31429;42.674;23.350;2022-08-05T09:35:10;94805.03;;;29.90;53.14
23164;BME280;31429;42.674;23.350;2022-08-05T09:40:48;94783.00;;;29.83;51.09
23164;BME280;31429;42.674;23.350;2022-08-05T09:45:41;94771.13;;;29.79;45.34
23164;BME280;31429;42.674;23.350;2022-08-05T09:46:42;94649.59;;;29.12;46.23
23164;BME280;31429;42.674;23.350;2022-08-05T09:47:45;94753.56;;;29.63;49.14
23164;BME280;31429;42.674;23.350;2022-08-05T09:53:06;94668.50;;;29.16;49.81
23164;BME280;31429;42.674;23.350;2022-08-05T09:54:07;94709.41;;;29.42;47.79
23164;BME280;31429;42.674;23.350;2022-08-05T10:20:24;94687.13;;;29.14;41.63
23164;BME280;31429;42.674;23.350;2022-08-05T10:21:25;94782.69;;;29.70;40.00
23164;BME280;31429;42.674;23.350;2022-08-05T10:22:26;94687.50;;;29.03;40.36
23164;BME280;31429;42.674;23.350;2022-08-05T10:23:29;94739.06;;;29.36;40.77
23164;BME280;31429;42.674;23.350;2022-08-05T10:24:32;94771.63;;;29.82;41.12
23164;BME280;31429;42.674;23.350;2022-08-05T10:25:33;94719.84;;;29.58;42.26
23164;BME280;31429;42.674;23.350;2022-08-05T10:26:34;94700.84;;;29.63;41.58
23164;BME280;31429;42.674;23.350;2022-08-05T10:27:35;94775.97;;;30.20;44.44
23164;BME280;31429;42.674;23.350;2022-08-05T10:28:39;94770.41;;;30.38;47.86
23164;BME280;31429;42.674;23.350;2022-08-05T10:29:40;94773.69;;;30.40;43.42
23164;BME280;31429;42.674;23.350;2022-08-05T10:30:41;94657.09;;;29.85;47.10
23164;BME280;31429;42.674;23.350;2022-08-05T10:31:42;94695.59;;;29.94;49.55
23164;BME280;31429;42.674;23.350;2022-08-05T11:09:24;94734.13;;;30.40;41.95
23164;BME280;31429;42.674;23.350;2022-08-05T11:13:06;94752.06;;;30.22;42.40
23164;BME280;31429;42.674;23.350;2022-08-05T11:14:09;94633.50;;;29.60;42.16
23164;BME280;31429;42.674;23.350;2022-08-05T11:15:21;94608.63;;;29.63;46.56
23164;BME280;31429;42.674;23.350;2022-08-05T11:16:23;94627.13;;;29.78;41.53
23164;BME280;31429;42.674;23.350;2022-08-05T11:17:28;94722.50;;;30.49;45.40
23164;BME280;31429;42.674;23.350;2022-08-05T11:24:06;94644.19;;;29.67;38.87
23164;BME280;31429;42.674;23.350;2022-08-05T11:25:32;94529.13;;;29.14;38.31
23164;BME280;31429;42.674;23.350;2022-08-05T11:26:33;94728.84;;;30.40;38.33
23164;BME280;31429;42.674;23.350;2022-08-05T11:27:34;94698.13;;;30.25;41.14
23164;BME280;31429;42.674;23.350;2022-08-05T11:28:43;94634.88;;;30.02;37.87
23164;BME280;31429;42.674;23.350;2022-08-05T11:29:58;94734.88;;;30.63;37.58
23164;BME280;31429;42.674;23.350;2022-08-05T11:31:24;94631.16;;;30.11;39.01
23164;BME280;31429;42.674;23.350;2022-08-05T11:32:29;94727.44;;;30.67;37.95
23164;BME280;31429;42.674;23.350;2022-08-05T11:33:31;94721.34;;;30.81;41.26
23164;BME280;31429;42.674;23.350;2022-08-05T11:34:36;94578.13;;;29.91;38.25
23164;BME280;31429;42.674;23.350;2022-08-05T11:35:53;94602.50;;;30.08;38.80
23164;BME280;31429;42.674;23.350;2022-08-05T11:36:54;94711.72;;;31.03;40.99
23164;BME280;31429;42.674;23.350;2022-08-05T11:37:58;94709.06;;;31.17;43.18
23164;BME280;31429;42.674;23.350;2022-08-05T11:39:00;94713.72;;;31.15;44.55
23164;BME280;31429;42.674;23.350;2022-08-05T11:40:01;94706.25;;;31.19;43.19
23164;BME280;31429;42.674;23.350;2022-08-05T11:41:04;94618.59;;;30.50;44.67
23164;BME280;31429;42.674;23.350;2022-08-05T11:42:05;94610.63;;;30.36;44.59
23164;BME280;31429;42.674;23.350;2022-08-05T11:43:07;94569.84;;;30.09;45.33
23164;BME280;31429;42.674;23.350;2022-08-05T11:44:09;94707.25;;;31.03;40.41
23164;BME280;31429;42.674;23.350;2022-08-05T11:45:11;94562.22;;;30.14;39.21
23164;BME280;31429;42.674;23.350;2022-08-05T11:46:12;94653.44;;;30.75;43.69
23164;BME280;31429;42.674;23.350;2022-08-05T11:47:13;94649.59;;;30.77;42.32
23164;BME280;31429;42.674;23.350;2022-08-05T11:48:14;94624.38;;;30.60;42.23
23164;BME280;31429;42.674;23.350;2022-08-05T11:49:16;94722.94;;;31.05;43.17
23164;BME280;31429;42.674;23.350;2022-08-05T11:50:18;94692.56;;;30.86;44.25
23164;BME280;31429;42.674;23.350;2022-08-05T11:52:37;94601.94;;;29.75;40.15
23164;BME280;31429;42.674;23.350;2022-08-05T11:57:05;94706.91;;;30.17;39.98
23164;BME280;31429;42.674;23.350;2022-08-05T11:58:06;94559.38;;;29.18;38.85
23164;BME280;31429;42.674;23.350;2022-08-05T11:59:11;94623.38;;;29.72;43.87
23164;BME280;31429;42.674;23.350;2022-08-05T12:00:24;94581.13;;;29.66;42.51
23164;BME280;31429;42.674;23.350;2022-08-05T12:01:25;94656.72;;;30.10;39.99
23164;BME280;31429;42.674;23.350;2022-08-05T12:02:28;94696.22;;;30.56;41.40
23164;BME280;31429;42.674;23.350;2022-08-05T12:03:40;94702.69;;;30.68;38.70
23164;BME280;31429;42.674;23.350;2022-08-05T12:04:43;94696.13;;;30.79;44.46
23164;BME280;31429;42.674;23.350;2022-08-05T12:05:44;94633.34;;;30.22;45.24
23164;BME280;31429;42.674;23.350;2022-08-05T12:06:45;94701.75;;;30.61;40.94
23164;BME280;31429;42.674;23.350;2022-08-05T12:07:46;94607.16;;;29.83;39.52
23164;BME280;31429;42.674;23.350;2022-08-05T12:08:49;94639.09;;;29.66;40.92
23164;BME280;31429;42.674;23.350;2022-08-05T12:09:52;94702.56;;;30.24;42.99
23164;BME280;31429;42.674;23.350;2022-08-05T12:10:57;94606.19;;;29.61;40.71
23164;BME280;31429;42.674;23.350;2022-08-05T12:11:58;94702.66;;;29.93;41.46
23164;BME280;31429;42.674;23.350;2022-08-05T12:13:03;94702.28;;;29.74;42.85
23164;BME280;31429;42.674;23.350;2022-08-05T12:14:06;94664.34;;;29.29;45.79
23164;BME280;31429;42.674;23.350;2022-08-05T12:15:17;94698.38;;;29.39;48.67
23164;BME280;31429;42.674;23.350;2022-08-05T12:16:19;94659.63;;;29.17;44.05
23164;BME280;31429;42.674;23.350;2022-08-05T12:17:20;94606.56;;;28.97;47.32
23164;BME280;31429;42.674;23.350;2022-08-05T12:18:27;94527.56;;;28.74;40.86
23164;BME280;31429;42.674;23.350;2022-08-05T12:19:29;94622.22;;;29.52;39.39
23164;BME280;31429;42.674;23.350;2022-08-05T12:20:29;94684.31;;;30.23;39.45
23164;BME280;31429;42.674;23.350;2022-08-05T12:21:32;94672.22;;;30.28;39.84
23164;BME280;31429;42.674;23.350;2022-08-05T12:22:33;94686.97;;;30.37;42.35
23164;BME280;31429;42.674;23.350;2022-08-05T12:23:34;94601.66;;;29.70;46.57
23164;BME280;31429;42.674;23.350;2022-08-05T12:24:39;94686.81;;;30.16;47.77
23164;BME280;31429;42.674;23.350;2022-08-05T12:25:50;94626.56;;;29.90;43.42
23164;BME280;31429;42.674;23.350;2022-08-05T12:26:52;94678.47;;;30.64;45.42
23164;BME280;31429;42.674;23.350;2022-08-05T12:27:53;94675.38;;;30.75;45.09
23164;BME280;31429;42.674;23.350;2022-08-05T12:28:55;94590.66;;;29.67;47.87
23164;BME280;31429;42.674;23.350;2022-08-05T12:30:00;94682.53;;;30.52;44.03
23164;BME280;31429;42.674;23.350;2022-08-05T12:31:02;94673.81;;;30.66;40.82
23164;BME280;31429;42.674;23.350;2022-08-05T12:32:04;94678.91;;;30.83;39.48
23164;BME280;31429;42.674;23.350;2022-08-05T12:33:05;94661.81;;;30.64;42.83
23164;BME280;31429;42.674;23.350;2022-08-05T12:34:06;94679.00;;;30.74;39.06
23164;BME280;31429;42.674;23.350;2022-08-05T12:35:09;94681.13;;;30.94;42.45
23164;BME280;31429;42.674;23.350;2022-08-05T12:36:11;94645.50;;;30.90;43.85
23164;BME280;31429;42.674;23.350;2022-08-05T12:37:12;94524.56;;;30.20;40.76
23164;BME280;31429;42.674;23.350;2022-08-05T12:38:12;94674.84;;;31.09;41.78
23164;BME280;31429;42.674;23.350;2022-08-05T12:39:13;94622.66;;;30.82;44.53
23164;BME280;31429;42.674;23.350;2022-08-05T12:40:14;94620.56;;;30.77;40.70
23164;BME280;31429;42.674;23.350;2022-08-05T12:41:15;94543.22;;;30.18;46.76
23164;BME280;31429;42.674;23.350;2022-08-05T12:43:49;94574.06;;;30.33;46.34
23164;BME280;31429;42.674;23.350;2022-08-05T12:45:04;94684.75;;;30.78;40.18
23164;BME280;31429;42.674;23.350;2022-08-05T12:46:05;94501.72;;;29.83;42.92
23164;BME280;31429;42.674;23.350;2022-08-05T12:47:06;94568.66;;;30.11;42.50
23164;BME280;31429;42.674;23.350;2022-08-05T12:48:16;94674.53;;;30.75;43.70
23164;BME280;31429;42.674;23.350;2022-08-05T12:49:17;94620.50;;;30.42;42.21
23164;BME280;31429;42.674;23.350;2022-08-05T12:50:18;94486.69;;;29.69;39.68
23164;BME280;31429;42.674;23.350;2022-08-05T12:52:36;94665.91;;;30.66;41.46
23164;BME280;31429;42.674;23.350;2022-08-05T12:53:41;94615.38;;;30.40;43.28
23164;BME280;31429;42.674;23.350;2022-08-05T12:54:43;94636.50;;;30.55;43.42
23164;BME280;31429;42.674;23.350;2022-08-05T12:55:45;94653.53;;;30.52;40.73
23164;BME280;31429;42.674;23.350;2022-08-05T12:56:47;94659.34;;;30.48;41.17
23164;BME280;31429;42.674;23.350;2022-08-05T12:57:50;94646.94;;;30.48;40.82
23164;BME280;31429;42.674;23.350;2022-08-05T13:03:16;94660.34;;;30.09;41.10
23164;BME280;31429;42.674;23.350;2022-08-05T13:04:17;94648.59;;;30.12;41.50
23164;BME280;31429;42.674;23.350;2022-08-05T13:05:18;94657.25;;;30.20;44.54
23164;BME280;31429;42.674;23.350;2022-08-05T13:06:18;94643.25;;;30.20;46.02
23164;BME280;31429;42.674;23.350;2022-08-05T13:07:22;94628.06;;;30.07;42.39
23164;BME280;31429;42.674;23.350;2022-08-05T13:08:23;94631.16;;;30.11;46.96
23164;BME280;31429;42.674;23.350;2022-08-05T13:09:28;94642.59;;;30.03;40.01
23164;BME280;31429;42.674;23.350;2022-08-05T13:10:30;94629.94;;;29.99;40.23
23164;BME280;31429;42.674;23.350;2022-08-05T13:11:32;94585.28;;;29.75;41.21
23164;BME280;31429;42.674;23.350;2022-08-05T13:12:38;94654.91;;;30.11;40.94
23164;BME280;31429;42.674;23.350;2022-08-05T13:13:39;94563.56;;;29.73;42.53
23164;BME280;31429;42.674;23.350;2022-08-05T13:14:41;94642.34;;;30.13;41.10
23164;BME280;31429;42.674;23.350;2022-08-05T13:15:48;94646.03;;;30.04;42.46
23164;BME280;31429;42.674;23.350;2022-08-05T13:16:53;94627.13;;;30.00;44.12
23164;BME280;31429;42.674;23.350;2022-08-05T13:17:54;94649.28;;;30.14;39.41
23164;BME280;31429;42.674;23.350;2022-08-05T13:18:56;94624.31;;;30.02;38.83
23164;BME280;31429;42.674;23.350;2022-08-05T13:19:59;94624.88;;;30.12;41.03
23164;BME280;31429;42.674;23.350;2022-08-05T13:21:00;94639.78;;;30.42;44.15
23164;BME280;31429;42.674;23.350;2022-08-05T13:22:01;94605.88;;;30.31;39.72
23164;BME280;31429;42.674;23.350;2022-08-05T13:23:01;94635.88;;;30.53;42.11
23164;BME280;31429;42.674;23.350;2022-08-05T13:24:03;94631.94;;;30.49;43.81
23164;BME280;31429;42.674;23.350;2022-08-05T13:25:05;94602.25;;;30.32;45.82
23164;BME280;31429;42.674;23.350;2022-08-05T13:26:06;94620.84;;;30.39;46.53
23164;BME280;31429;42.674;23.350;2022-08-05T13:27:07;94595.78;;;30.20;45.48
23164;BME280;31429;42.674;23.350;2022-08-05T13:28:08;94641.75;;;30.40;40.23
23164;BME280;31429;42.674;23.350;2022-08-05T13:29:09;94603.59;;;30.13;45.27
23164;BME280;31429;42.674;23.350;2022-08-05T13:30:11;94638.41;;;30.46;45.31
23164;BME280;31429;42.674;23.350;2022-08-05T13:31:12;94521.41;;;29.73;46.65
23164;BME280;31429;42.674;23.350;2022-08-05T13:32:13;94588.06;;;30.18;47.29
23164;BME280;31429;42.674;23.350;2022-08-05T13:33:14;94424.63;;;29.15;46.97
23164;BME280;31429;42.674;23.350;2022-08-05T13:34:16;94535.34;;;29.81;40.34
23164;BME280;31429;42.674;23.350;2022-08-05T13:35:17;94558.72;;;29.84;45.55
23164;BME280;31429;42.674;23.350;2022-08-05T13:36:19;94567.09;;;29.88;46.76
23164;BME280;31429;42.674;23.350;2022-08-05T13:37:20;94636.31;;;30.42;39.38
23164;BME280;31429;42.674;23.350;2022-08-05T13:38:21;94583.34;;;30.14;38.63
23164;BME280;31429;42.674;23.350;2022-08-05T13:39:23;94581.94;;;30.18;45.26
23164;BME280;31429;42.674;23.350;2022-08-05T13:40:24;94597.69;;;30.26;41.63
23164;BME280;31429;42.674;23.350;2022-08-05T13:41:24;94548.91;;;29.93;41.89
23164;BME280;31429;42.674;23.350;2022-08-05T13:42:25;94646.94;;;30.48;37.83
23164;BME280;31429;42.674;23.350;2022-08-05T13:43:26;94627.03;;;30.60;42.91
23164;BME280;31429;42.674;23.350;2022-08-05T13:44:27;94482.06;;;29.71;39.60
23164;BME280;31429;42.674;23.350;2022-08-05T13:45:27;94581.69;;;30.28;44.47
23164;BME280;31429;42.674;23.350;2022-08-05T13:46:28;94550.75;;;30.07;40.19
23164;BME280;31429;42.674;23.350;2022-08-05T13:47:30;94535.19;;;29.83;38.73
23164;BME280;31429;42.674;23.350;2022-08-05T13:48:31;94625.13;;;30.54;41.05
23164;BME280;31429;42.674;23.350;2022-08-05T13:49:33;94597.38;;;30.44;44.91
23164;BME280;31429;42.674;23.350;2022-08-05T13:50:33;94607.66;;;30.53;39.20
23164;BME280;31429;42.674;23.350;2022-08-05T13:51:34;94627.59;;;30.70;38.22
23164;BME280;31429;42.674;23.350;2022-08-05T13:52:35;94629.94;;;30.80;39.77
23164;BME280;31429;42.674;23.350;2022-08-05T13:53:36;94527.75;;;30.30;39.16
23164;BME280;31429;42.674;23.350;2022-08-05T13:54:37;94625.94;;;30.99;40.72
23164;BME280;31429;42.674;23.350;2022-08-05T13:55:37;94620.28;;;31.02;39.20
23164;BME280;31429;42.674;23.350;2022-08-05T13:56:39;94519.09;;;30.36;42.60
23164;BME280;31429;42.674;23.350;2022-08-05T13:57:39;94629.31;;;30.93;39.82
23164;BME280;31429;42.674;23.350;2022-08-05T13:58:40;94629.31;;;30.63;39.32
23164;BME280;31429;42.674;23.350;2022-08-05T13:59:41;94596.03;;;29.96;36.83
23164;BME280;31429;42.674;23.350;2022-08-05T14:00:42;94572.94;;;29.98;36.53
23164;BME280;31429;42.674;23.350;2022-08-05T14:01:43;94612.63;;;30.34;40.63
23164;BME280;31429;42.674;23.350;2022-08-05T14:02:43;94608.00;;;30.36;39.46
23164;BME280;31429;42.674;23.350;2022-08-05T14:03:44;94597.31;;;30.14;42.25
23164;BME280;31429;42.674;23.350;2022-08-05T14:05:07;94566.47;;;30.00;44.21
23164;BME280;31429;42.674;23.350;2022-08-05T14:06:10;94585.06;;;30.22;44.85
23164;BME280;31429;42.674;23.350;2022-08-05T14:07:11;94621.75;;;30.46;44.30
23164;BME280;31429;42.674;23.350;2022-08-05T14:08:12;94626.59;;;30.42;40.45
23164;BME280;31429;42.674;23.350;2022-08-05T14:09:12;94621.91;;;30.30;39.04
23164;BME280;31429;42.674;23.350;2022-08-05T14:10:16;94622.81;;;30.37;39.68
23164;BME280;31429;42.674;23.350;2022-08-05T14:11:17;94575.41;;;30.29;41.85
23164;BME280;31429;42.674;23.350;2022-08-05T14:12:18;94607.09;;;30.72;43.38
23164;BME280;31429;42.674;23.350;2022-08-05T14:13:19;94601.97;;;30.86;43.76
23164;BME280;31429;42.674;23.350;2022-08-05T14:14:20;94608.38;;;31.27;43.28
23164;BME280;31429;42.674;23.350;2022-08-05T14:15:20;94570.94;;;31.23;39.98
23164;BME280;31429;42.674;23.350;2022-08-05T14:16:21;94613.59;;;31.77;37.37
23164;BME280;31429;42.674;23.350;2022-08-05T14:17:22;94579.50;;;31.89;40.58
23164;BME280;31429;42.674;23.350;2022-08-05T14:18:25;94575.13;;;32.30;35.35
23164;BME280;31429;42.674;23.350;2022-08-05T14:19:26;94589.44;;;32.70;37.96
23164;BME280;31429;42.674;23.350;2022-08-05T14:20:28;94609.09;;;32.89;39.60
23164;BME280;31429;42.674;23.350;2022-08-05T14:21:29;94563.38;;;32.39;34.84
23164;BME280;31429;42.674;23.350;2022-08-05T14:22:30;94614.69;;;32.11;33.73
23164;BME280;31429;42.674;23.350;2022-08-05T14:23:31;94601.47;;;31.26;34.71
23164;BME280;31429;42.674;23.350;2022-08-05T14:24:32;94612.31;;;31.16;34.36
23164;BME280;31429;42.674;23.350;2022-08-05T14:25:33;94561.22;;;30.73;35.38
23164;BME280;31429;42.674;23.350;2022-08-05T14:26:34;94602.78;;;30.86;35.20
23164;BME280;31429;42.674;23.350;2022-08-05T14:27:35;94599.41;;;30.92;39.53
23164;BME280;31429;42.674;23.350;2022-08-05T14:28:35;94575.78;;;30.55;39.88
23164;BME280;31429;42.674;23.350;2022-08-05T14:29:36;94547.84;;;30.46;40.21
23164;BME280;31429;42.674;23.350;2022-08-05T14:30:37;94568.06;;;30.68;42.24
23164;BME280;31429;42.674;23.350;2022-08-05T14:31:37;94535.75;;;30.51;37.52
23164;BME280;31429;42.674;23.350;2022-08-05T14:32:38;94553.22;;;30.67;35.84
23164;BME280;31429;42.674;23.350;2022-08-05T14:33:39;94561.03;;;30.60;37.59
23164;BME280;31429;42.674;23.350;2022-08-05T14:34:40;94567.97;;;30.61;38.47
23164;BME280;31429;42.674;23.350;2022-08-05T14:35:42;94553.69;;;30.41;36.86
23164;BME280;31429;42.674;23.350;2022-08-05T14:36:42;94607.47;;;30.69;38.55
23164;BME280;31429;42.674;23.350;2022-08-05T14:37:43;94515.19;;;30.17;36.84
23164;BME280;31429;42.674;23.350;2022-08-05T14:38:44;94477.84;;;29.85;36.84
23164;BME280;31429;42.674;23.350;2022-08-05T14:39:44;94553.31;;;30.30;39.44
23164;BME280;31429;42.674;23.350;2022-08-05T14:40:45;94584.91;;;30.67;38.90
23164;BME280;31429;42.674;23.350;2022-08-05T14:41:46;94575.97;;;30.68;40.64
23164;BME280;31429;42.674;23.350;2022-08-05T14:42:47;94563.31;;;30.78;42.88
23164;BME280;31429;42.674;23.350;2022-08-05T14:43:47;94531.38;;;30.58;43.84
23164;BME280;31429;42.674;23.350;2022-08-05T14:44:50;94512.47;;;30.55;42.86
23164;BME280;31429;42.674;23.350;2022-08-05T14:45:51;94529.81;;;30.64;44.87
23164;BME280;31429;42.674;23.350;2022-08-05T14:46:52;94565.56;;;30.81;38.65
23164;BME280;31429;42.674;23.350;2022-08-05T14:47:53;94553.19;;;30.82;44.75
23164;BME280;31429;42.674;23.350;2022-08-05T14:48:54;94586.72;;;31.17;44.88
23164;BME280;31429;42.674;23.350;2022-08-05T14:49:55;94573.75;;;31.01;37.59
23164;BME280;31429;42.674;23.350;2022-08-05T14:50:57;94567.03;;;30.84;36.50
23164;BME280;31429;42.674;23.350;2022-08-05T14:51:57;94590.88;;;30.75;39.06
23164;BME280;31429;42.674;23.350;2022-08-05T14:52:58;94594.47;;;30.68;41.23
23164;BME280;31429;42.674;23.350;2022-08-05T14:53:59;94583.81;;;30.61;36.27
23164;BME280;31429;42.674;23.350;2022-08-05T14:55:00;94541.56;;;30.32;44.99
23164;BME280;31429;42.674;23.350;2022-08-05T14:56:00;94584.34;;;30.71;43.07
23164;BME280;31429;42.674;23.350;2022-08-05T14:57:01;94588.34;;;30.67;36.76
23164;BME280;31429;42.674;23.350;2022-08-05T14:58:02;94501.28;;;30.24;42.67
23164;BME280;31429;42.674;23.350;2022-08-05T14:59:02;94552.03;;;30.55;38.98
23164;BME280;31429;42.674;23.350;2022-08-05T15:00:04;94589.44;;;30.73;44.18
23164;BME280;31429;42.674;23.350;2022-08-05T15:01:05;94557.78;;;30.58;43.28
23164;BME280;31429;42.674;23.350;2022-08-05T15:02:06;94563.31;;;30.49;36.42
23164;BME280;31429;42.674;23.350;2022-08-05T15:03:07;94557.47;;;30.09;40.02
23164;BME280;31429;42.674;23.350;2022-08-05T15:04:07;94579.22;;;30.26;38.97
23164;BME280;31429;42.674;23.350;2022-08-05T15:05:11;94587.34;;;30.25;35.84
23164;BME280;31429;42.674;23.350;2022-08-05T15:06:13;94479.88;;;29.75;37.49
23164;BME280;31429;42.674;23.350;2022-08-05T15:07:14;94577.16;;;30.36;36.78
23164;BME280;31429;42.674;23.350;2022-08-05T15:08:16;94574.19;;;30.39;37.25
23164;BME280;31429;42.674;23.350;2022-08-05T15:09:17;94559.13;;;30.25;40.13
23164;BME280;31429;42.674;23.350;2022-08-05T15:10:18;94545.75;;;30.27;38.88
23164;BME280;31429;42.674;23.350;2022-08-05T15:11:19;94579.53;;;30.46;37.14
23164;BME280;31429;42.674;23.350;2022-08-05T15:12:19;94569.22;;;30.36;36.05
23164;BME280;31429;42.674;23.350;2022-08-05T15:13:20;94537.94;;;30.18;44.04
23164;BME280;31429;42.674;23.350;2022-08-05T15:14:21;94569.03;;;30.23;38.61
23164;BME280;31429;42.674;23.350;2022-08-05T15:15:21;94480.63;;;29.83;41.26
23164;BME280;31429;42.674;23.350;2022-08-05T15:16:22;94572.88;;;30.35;36.22
23164;BME280;31429;42.674;23.350;2022-08-05T15:17:23;94540.38;;;30.20;36.38
23164;BME280;31429;42.674;23.350;2022-08-05T15:18:24;94569.41;;;30.35;38.98
23164;BME280;31429;42.674;23.350;2022-08-05T15:19:25;94571.53;;;30.39;39.89
23164;BME280;31429;42.674;23.350;2022-08-05T15:20:26;94580.25;;;30.25;38.82
23164;BME280;31429;42.674;23.350;2022-08-05T15:21:28;94508.44;;;29.86;37.90
23164;BME280;31429;42.674;23.350;2022-08-05T15:22:28;94542.47;;;29.95;40.67
23164;BME280;31429;42.674;23.350;2022-08-05T15:23:29;94557.19;;;29.90;37.13
23164;BME280;31429;42.674;23.350;2022-08-05T15:24:30;94568.03;;;30.09;36.24
23164;BME280;31429;42.674;23.350;2022-08-05T15:25:31;94565.13;;;30.04;36.50
23164;BME280;31429;42.674;23.350;2022-08-05T15:26:31;94535.53;;;29.80;39.79
23164;BME280;31429;42.674;23.350;2022-08-05T15:27:32;94549.84;;;29.85;39.75
23164;BME280;31429;42.674;23.350;2022-08-05T15:28:33;94540.75;;;29.88;37.04
23164;BME280;31429;42.674;23.350;2022-08-05T15:29:34;94545.56;;;29.99;36.92
23164;BME280;31429;42.674;23.350;2022-08-05T15:30:35;94566.31;;;30.16;35.95
23164;BME280;31429;42.674;23.350;2022-08-05T15:31:38;94549.41;;;30.11;37.79
23164;BME280;31429;42.674;23.350;2022-08-05T15:32:39;94561.94;;;30.24;37.61
23164;BME280;31429;42.674;23.350;2022-08-05T15:33:40;94570.50;;;30.11;38.92
23164;BME280;31429;42.674;23.350;2022-08-05T15:34:41;94545.38;;;30.15;40.05
23164;BME280;31429;42.674;23.350;2022-08-05T15:35:42;94565.31;;;30.32;40.90
23164;BME280;31429;42.674;23.350;2022-08-05T15:36:44;94560.31;;;30.37;39.15
23164;BME280;31429;42.674;23.350;2022-08-05T15:37:44;94540.13;;;30.15;38.31
23164;BME280;31429;42.674;23.350;2022-08-05T15:38:45;94496.09;;;30.01;42.04
23164;BME280;31429;42.674;23.350;2022-08-05T15:39:46;94532.66;;;30.04;41.98
23164;BME280;31429;42.674;23.350;2022-08-05T15:40:47;94562.94;;;30.08;38.87
23164;BME280;31429;42.674;23.350;2022-08-05T15:41:47;94555.66;;;30.10;40.82
23164;BME280;31429;42.674;23.350;2022-08-05T15:42:48;94553.50;;;30.28;41.46
23164;BME280;31429;42.674;23.350;2022-08-05T15:43:49;94543.72;;;29.85;40.10
23164;BME280;31429;42.674;23.350;2022-08-05T15:44:50;94528.91;;;29.84;39.44
23164;BME280;31429;42.674;23.350;2022-08-05T15:45:51;94555.28;;;29.98;40.83
23164;BME280;31429;42.674;23.350;2022-08-05T15:46:52;94515.03;;;29.67;41.69
23164;BME280;31429;42.674;23.350;2022-08-05T15:47:53;94533.09;;;29.93;39.89
23164;BME280;31429;42.674;23.350;2022-08-05T15:48:53;94557.31;;;30.11;42.69
23164;BME280;31429;42.674;23.350;2022-08-05T15:49:54;94553.56;;;30.20;42.54
23164;BME280;31429;42.674;23.350;2022-08-05T15:50:55;94534.94;;;30.22;44.21
23164;BME280;31429;42.674;23.350;2022-08-05T15:51:57;94527.03;;;30.22;42.97
23164;BME280;31429;42.674;23.350;2022-08-05T15:52:58;94551.22;;;30.25;40.93
23164;BME280;31429;42.674;23.350;2022-08-05T15:53:58;94548.03;;;30.15;43.30
23164;BME280;31429;42.674;23.350;2022-08-05T15:54:59;94551.13;;;30.04;37.61
23164;BME280;31429;42.674;23.350;2022-08-05T15:56:00;94539.91;;;29.87;39.36
23164;BME280;31429;42.674;23.350;2022-08-05T15:57:01;94516.84;;;29.67;42.51
23164;BME280;31429;42.674;23.350;2022-08-05T15:58:01;94523.06;;;29.74;41.41
23164;BME280;31429;42.674;23.350;2022-08-05T15:59:02;94499.50;;;29.72;43.02
23164;BME280;31429;42.674;23.350;2022-08-05T16:00:04;94515.09;;;29.82;39.74
23164;BME280;31429;42.674;23.350;2022-08-05T16:01:06;94373.34;;;28.88;38.80
23164;BME280;31429;42.674;23.350;2022-08-05T16:02:12;94558.56;;;30.00;39.23
23164;BME280;31429;42.674;23.350;2022-08-05T16:03:12;94554.09;;;30.01;40.01
23164;BME280;31429;42.674;23.350;2022-08-05T16:04:13;94545.94;;;29.96;39.58
23164;BME280;31429;42.674;23.350;2022-08-05T16:05:14;94367.81;;;28.83;42.34